Time;durP1;ratioP1;P1;durP2;ratioP2;P2;SDS_P1;SDS_P2;PMS_P1;PMS_P2;Temp;Humidity;BMP_temperature;BMP_pressure;BME280_temperature;BME280_humidity;BME280_pressure;Samples;Min_cycle;Max_cycle;Signal;HPM_P1;HPM_P2
2022/02/24 00:00:04;;;;;;;;;2.75;2.25;;;;;;;;5076873;27;45468;-73
2022/02/24 00:02:29;;;;;;;;;4.00;3.25;;;;;;;;5078169;27;45369;-73
2022/02/24 00:04:54;;;;;;;;;2.75;2.75;;;;;;;;5074345;27;49277;-73
2022/02/24 00:07:20;;;;;;;;;2.00;2.00;;;;;;;;5073041;28;45328;-73
2022/02/24 00:09:45;;;;;;;;;3.00;2.75;;;;;;;;5064385;28;45330;-73
2022/02/24 00:12:10;;;;;;;;;1.25;1.25;;;;;;;;5064150;28;45295;-73
2022/02/24 00:14:35;;;;;;;;;4.00;2.25;;;;;;;;5066779;28;45344;-73
2022/02/24 00:17:01;;;;;;;;;2.00;2.00;;;;;;;;5076474;27;45642;-73
2022/02/24 00:19:27;;;;;;;;;1.75;1.75;;;;;;;;5075662;28;45484;-73
2022/02/24 00:21:52;;;;;;;;;4.00;2.00;;;;;;;;5076932;27;46018;-73
2022/02/24 00:24:17;;;;;;;;;3.75;3.75;;;;;;;;5067567;27;45506;-73
2022/02/24 00:26:42;;;;;;;;;1.75;1.75;;;;;;;;5068203;28;47809;-73
2022/02/24 00:29:08;;;;;;;;;4.00;2.00;;;;;;;;5087814;27;45576;-73
2022/02/24 00:31:33;;;;;;;;;2.25;2.25;;;;;;;;5076132;27;45492;-73
2022/02/24 00:33:59;;;;;;;;;5.25;2.75;;;;;;;;5076579;27;45974;-73
2022/02/24 00:36:24;;;;;;;;;4.50;3.00;;;;;;;;5066235;27;46266;-73
2022/02/24 00:38:49;;;;;;;;;3.75;2.00;;;;;;;;5074699;28;45457;-73
2022/02/24 00:41:14;;;;;;;;;3.00;3.00;;;;;;;;5075670;28;45354;-73
2022/02/24 00:43:39;;;;;;;;;3.00;1.00;;;;;;;;5075797;27;45429;-73
2022/02/24 00:46:05;;;;;;;;;3.50;2.25;;;;;;;;5076431;27;45346;-73
2022/02/24 00:48:30;;;;;;;;;4.00;2.50;;;;;;;;5084031;27;45471;-73
2022/02/24 00:50:55;;;;;;;;;2.50;2.50;;;;;;;;5082077;27;45418;-73
2022/02/24 00:53:20;;;;;;;;;4.25;3.75;;;;;;;;5075507;27;45362;-73
2022/02/24 00:55:45;;;;;;;;;2.00;2.00;;;;;;;;5087604;27;46193;-73
2022/02/24 00:58:11;;;;;;;;;4.25;2.00;;;;;;;;5067928;27;45437;-73
2022/02/24 01:00:36;;;;;;;;;2.00;2.00;;;;;;;;5075800;27;45499;-73
2022/02/24 01:03:01;;;;;;;;;3.25;2.00;;;;;;;;5076121;27;45435;-73
2022/02/24 01:05:26;;;;;;;;;3.75;2.00;;;;;;;;5075275;28;45434;-73
2022/02/24 01:07:51;;;;;;;;;2.50;2.50;;;;;;;;5078742;27;48681;-73
2022/02/24 01:10:17;;;;;;;;;4.00;3.00;;;;;;;;5076224;28;45430;-73
2022/02/24 01:12:42;;;;;;;;;2.75;2.00;;;;;;;;5075938;28;45555;-73
2022/02/24 01:15:08;;;;;;;;;3.25;2.00;;;;;;;;5078137;27;46111;-73
2022/02/24 01:17:34;;;;;;;;;2.75;2.00;;;;;;;;5084582;27;45403;-73
2022/02/24 01:19:59;;;;;;;;;5.00;3.50;;;;;;;;5075504;28;45396;-73
2022/02/24 01:22:24;;;;;;;;;4.50;2.00;;;;;;;;5075525;28;45316;-73
2022/02/24 01:24:50;;;;;;;;;4.00;2.00;;;;;;;;5062694;27;47183;-73
2022/02/24 01:27:15;;;;;;;;;4.25;1.00;;;;;;;;5067207;28;45296;-73
2022/02/24 01:29:40;;;;;;;;;3.25;2.00;;;;;;;;5075273;28;45413;-73
2022/02/24 01:32:05;;;;;;;;;2.75;2.00;;;;;;;;5075122;28;45401;-73
2022/02/24 01:34:31;;;;;;;;;2.25;1.00;;;;;;;;5073861;28;46011;-73
2022/02/24 01:36:56;;;;;;;;;1.00;1.00;;;;;;;;5075663;28;45426;-74
2022/02/24 01:39:21;;;;;;;;;3.25;3.00;;;;;;;;5074773;27;45468;-73
2022/02/24 01:41:48;;;;;;;;;3.00;1.75;;;;;;;;5074718;28;45494;-73
2022/02/24 01:44:14;;;;;;;;;2.00;2.00;;;;;;;;5077250;28;46024;-73
2022/02/24 01:46:39;;;;;;;;;2.75;2.75;;;;;;;;5077251;28;45375;-73
2022/02/24 01:49:05;;;;;;;;;2.25;2.25;;;;;;;;5079102;28;45270;-73
2022/02/24 01:51:31;;;;;;;;;4.50;2.00;;;;;;;;5074040;27;45493;-73
2022/02/24 01:53:56;;;;;;;;;2.00;2.00;;;;;;;;5077589;28;45463;-73
2022/02/24 01:56:21;;;;;;;;;3.50;2.75;;;;;;;;5077227;28;45447;-72
2022/02/24 01:58:48;;;;;;;;;2.25;2.25;;;;;;;;5077982;28;45413;-73
2022/02/24 02:01:13;;;;;;;;;2.25;2.25;;;;;;;;5079161;28;45335;-73
2022/02/24 02:03:39;;;;;;;;;6.50;3.00;;;;;;;;5079297;27;45451;-73
2022/02/24 02:06:04;;;;;;;;;2.00;2.00;;;;;;;;5077325;28;45350;-73
2022/02/24 02:08:30;;;;;;;;;2.00;2.00;;;;;;;;5077940;27;45489;-73
2022/02/24 02:10:55;;;;;;;;;2.75;2.00;;;;;;;;5078086;28;46062;-72
2022/02/24 02:13:21;;;;;;;;;2.75;2.75;;;;;;;;5061951;27;47355;-73
2022/02/24 02:15:46;;;;;;;;;2.00;2.00;;;;;;;;5078260;28;45428;-73
2022/02/24 02:18:11;;;;;;;;;3.00;2.00;;;;;;;;5078272;28;45820;-73
2022/02/24 02:20:37;;;;;;;;;1.25;1.25;;;;;;;;5077690;28;45380;-73
2022/02/24 02:23:02;;;;;;;;;1.75;1.75;;;;;;;;5077682;28;47334;-73
2022/02/24 02:25:28;;;;;;;;;3.50;2.25;;;;;;;;5077665;28;48845;-73
2022/02/24 02:27:53;;;;;;;;;4.00;2.75;;;;;;;;5078409;27;45350;-73
2022/02/24 02:30:19;;;;;;;;;3.00;2.00;;;;;;;;5077301;27;45225;-73
2022/02/24 02:32:44;;;;;;;;;2.00;2.00;;;;;;;;5076874;28;46555;-73
2022/02/24 02:35:10;;;;;;;;;2.00;2.00;;;;;;;;5080976;27;45417;-73
2022/02/24 02:37:35;;;;;;;;;4.00;2.75;;;;;;;;5077772;28;45462;-73
2022/02/24 02:40:00;;;;;;;;;2.00;2.00;;;;;;;;5078647;28;45507;-73
2022/02/24 02:42:26;;;;;;;;;3.50;2.25;;;;;;;;5076302;28;46475;-73
2022/02/24 02:44:52;;;;;;;;;5.50;3.00;;;;;;;;5076738;28;45465;-73
2022/02/24 02:47:17;;;;;;;;;4.00;2.00;;;;;;;;5077309;27;45497;-73
2022/02/24 02:49:42;;;;;;;;;3.00;3.00;;;;;;;;5076167;27;45362;-73
2022/02/24 02:52:07;;;;;;;;;2.00;1.75;;;;;;;;5089215;27;45512;-73
2022/02/24 02:54:33;;;;;;;;;4.00;2.00;;;;;;;;5078057;27;45476;-73
2022/02/24 02:56:58;;;;;;;;;3.50;2.50;;;;;;;;5077710;27;45352;-73
2022/02/24 02:59:23;;;;;;;;;3.00;3.00;;;;;;;;5077349;27;45491;-73
2022/02/24 03:01:51;;;;;;;;;3.00;2.00;;;;;;;;5077874;27;46178;-73
2022/02/24 03:04:16;;;;;;;;;2.00;2.00;;;;;;;;5077633;28;45285;-73
2022/02/24 03:06:42;;;;;;;;;2.75;2.00;;;;;;;;5077698;28;45454;-73
2022/02/24 03:09:07;;;;;;;;;5.25;2.50;;;;;;;;5076691;28;45207;-73
2022/02/24 03:11:32;;;;;;;;;3.00;3.00;;;;;;;;5076537;28;47519;-73
2022/02/24 03:13:57;;;;;;;;;4.25;2.50;;;;;;;;5076586;28;45271;-73
2022/02/24 03:16:22;;;;;;;;;1.75;1.75;;;;;;;;5076574;28;45349;-73
2022/02/24 03:18:47;;;;;;;;;3.75;2.75;;;;;;;;5078400;27;45327;-73
2022/02/24 03:21:13;;;;;;;;;3.50;2.00;;;;;;;;5076773;28;45499;-73
2022/02/24 03:23:39;;;;;;;;;3.00;3.00;;;;;;;;5073598;27;45438;-73
2022/02/24 03:26:04;;;;;;;;;3.00;2.00;;;;;;;;5063739;28;45288;-73
2022/02/24 03:28:29;;;;;;;;;2.00;1.00;;;;;;;;5076746;28;45390;-73
2022/02/24 03:30:55;;;;;;;;;2.50;2.00;;;;;;;;5065303;28;46100;-73
2022/02/24 03:33:20;;;;;;;;;1.50;1.50;;;;;;;;5076518;27;45671;-73
2022/02/24 03:35:45;;;;;;;;;4.50;2.25;;;;;;;;5076830;28;45536;-73
2022/02/24 03:38:10;;;;;;;;;4.25;2.75;;;;;;;;5076452;28;45355;-72
2022/02/24 03:40:36;;;;;;;;;3.00;3.00;;;;;;;;5073058;27;45422;-72
2022/02/24 03:43:01;;;;;;;;;3.00;3.00;;;;;;;;5076914;28;45338;-72
2022/02/24 03:45:26;;;;;;;;;4.75;2.00;;;;;;;;5077050;28;45453;-72
2022/02/24 03:47:52;;;;;;;;;1.50;1.50;;;;;;;;5080646;27;45387;-72
2022/02/24 03:50:17;;;;;;;;;2.00;2.00;;;;;;;;5076733;27;47259;-72
2022/02/24 03:52:42;;;;;;;;;4.75;3.25;;;;;;;;5076408;28;45328;-72
2022/02/24 03:55:08;;;;;;;;;4.00;3.00;;;;;;;;5077383;28;45374;-72
2022/02/24 03:57:33;;;;;;;;;2.75;1.75;;;;;;;;5075727;28;45409;-72
2022/02/24 03:59:58;;;;;;;;;3.00;3.00;;;;;;;;5076214;27;45981;-72
2022/02/24 04:02:24;;;;;;;;;1.50;1.50;;;;;;;;5075064;28;45520;-72
2022/02/24 04:04:49;;;;;;;;;2.00;1.75;;;;;;;;5060939;28;45436;-72
2022/02/24 04:07:14;;;;;;;;;2.25;2.25;;;;;;;;5089468;27;45465;-72
2022/02/24 04:09:40;;;;;;;;;3.75;3.00;;;;;;;;5075888;27;47261;-72
2022/02/24 04:12:06;;;;;;;;;2.75;2.50;;;;;;;;5078299;27;46129;-72
2022/02/24 04:14:31;;;;;;;;;4.00;2.25;;;;;;;;5076365;28;45509;-72
2022/02/24 04:16:59;;;;;;;;;2.00;2.00;;;;;;;;5076115;28;45558;-72
2022/02/24 04:19:24;;;;;;;;;2.00;2.00;;;;;;;;5079693;27;45605;-72
2022/02/24 04:21:50;;;;;;;;;1.50;1.50;;;;;;;;5076627;28;45359;-72
2022/02/24 04:24:15;;;;;;;;;2.00;2.00;;;;;;;;5071641;27;45472;-73
2022/02/24 04:26:40;;;;;;;;;3.00;3.00;;;;;;;;5075561;28;45370;-72
2022/02/24 04:29:05;;;;;;;;;2.50;2.50;;;;;;;;5088027;27;46298;-72
2022/02/24 04:31:30;;;;;;;;;2.25;2.25;;;;;;;;5075311;28;45476;-72
2022/02/24 04:33:55;;;;;;;;;6.75;4.00;;;;;;;;5076859;27;45344;-72
2022/02/24 04:36:22;;;;;;;;;3.00;2.00;;;;;;;;5075460;28;45482;-72
2022/02/24 04:38:47;;;;;;;;;3.25;3.00;;;;;;;;5075244;28;46374;-72
2022/02/24 04:41:13;;;;;;;;;2.00;2.00;;;;;;;;5073937;28;45726;-72
2022/02/24 04:43:38;;;;;;;;;6.75;4.00;;;;;;;;5078945;27;45414;-72
2022/02/24 04:46:03;;;;;;;;;3.25;2.00;;;;;;;;5076498;28;45431;-72
2022/02/24 04:48:29;;;;;;;;;2.00;1.75;;;;;;;;5084118;27;45283;-72
2022/02/24 04:50:54;;;;;;;;;4.00;3.00;;;;;;;;5081956;27;45504;-72
2022/02/24 04:53:19;;;;;;;;;2.25;2.25;;;;;;;;5086998;27;45397;-72
2022/02/24 04:55:45;;;;;;;;;3.25;2.00;;;;;;;;5075129;28;45382;-73
2022/02/24 04:58:10;;;;;;;;;3.75;2.00;;;;;;;;5086019;27;46334;-72
2022/02/24 05:00:36;;;;;;;;;1.25;1.25;;;;;;;;5075917;27;45239;-72
2022/02/24 05:03:01;;;;;;;;;2.00;1.75;;;;;;;;5075885;27;45306;-72
2022/02/24 05:05:26;;;;;;;;;3.75;3.00;;;;;;;;5077472;27;45409;-72
2022/02/24 05:07:51;;;;;;;;;2.00;2.00;;;;;;;;5075421;28;46855;-72
2022/02/24 05:10:17;;;;;;;;;2.75;2.00;;;;;;;;5075829;28;45240;-72
2022/02/24 05:12:42;;;;;;;;;3.00;1.75;;;;;;;;5075668;28;45510;-72
2022/02/24 05:15:08;;;;;;;;;3.50;2.00;;;;;;;;5075187;28;45566;-72
2022/02/24 05:17:34;;;;;;;;;3.00;2.00;;;;;;;;5073968;28;46031;-72
2022/02/24 05:19:59;;;;;;;;;3.00;1.00;;;;;;;;5075143;28;45822;-72
2022/02/24 05:22:24;;;;;;;;;1.00;1.00;;;;;;;;5075269;28;45402;-72
2022/02/24 05:24:51;;;;;;;;;2.75;2.00;;;;;;;;5075517;27;45379;-72
2022/02/24 05:27:16;;;;;;;;;2.75;2.75;;;;;;;;5074738;28;45460;-72
2022/02/24 05:29:41;;;;;;;;;1.00;1.00;;;;;;;;5075048;28;45416;-72
2022/02/24 05:32:07;;;;;;;;;2.00;2.00;;;;;;;;5074658;28;45447;-73
2022/02/24 05:34:32;;;;;;;;;3.75;1.00;;;;;;;;5075042;28;45342;-72
2022/02/24 05:36:57;;;;;;;;;2.00;2.00;;;;;;;;5078127;27;47137;-72
2022/02/24 05:39:22;;;;;;;;;1.25;1.25;;;;;;;;5080412;27;45492;-72
2022/02/24 05:41:47;;;;;;;;;3.75;1.00;;;;;;;;5081946;27;45461;-72
2022/02/24 05:44:13;;;;;;;;;3.25;2.00;;;;;;;;5074833;28;45472;-72
2022/02/24 05:46:38;;;;;;;;;1.25;1.00;;;;;;;;5074180;28;47719;-72
2022/02/24 05:49:03;;;;;;;;;2.00;1.00;;;;;;;;5060676;28;45306;-72
2022/02/24 05:51:30;;;;;;;;;3.00;3.00;;;;;;;;5078841;27;45347;-72
2022/02/24 05:53:55;;;;;;;;;4.75;2.25;;;;;;;;5080644;27;45322;-72
2022/02/24 05:56:20;;;;;;;;;2.00;1.25;;;;;;;;5083919;27;45444;-72
2022/02/24 05:58:45;;;;;;;;;1.00;1.00;;;;;;;;5074944;27;45321;-72
2022/02/24 06:01:11;;;;;;;;;2.00;1.00;;;;;;;;5075475;28;45548;-72
2022/02/24 06:03:36;;;;;;;;;1.75;1.75;;;;;;;;5074101;28;45385;-73
2022/02/24 06:06:02;;;;;;;;;3.00;1.00;;;;;;;;5073992;27;46843;-72
2022/02/24 06:08:27;;;;;;;;;2.50;2.50;;;;;;;;5073732;28;45376;-72
2022/02/24 06:10:52;;;;;;;;;4.00;1.00;;;;;;;;5074207;28;45553;-73
2022/02/24 06:13:18;;;;;;;;;5.00;3.25;;;;;;;;5058831;27;45441;-71
2022/02/24 06:15:43;;;;;;;;;6.25;3.00;;;;;;;;5074691;28;45260;-73
2022/02/24 06:18:10;;;;;;;;;4.00;3.00;;;;;;;;5073855;27;45686;-73
2022/02/24 06:20:35;;;;;;;;;3.75;2.00;;;;;;;;5073622;28;45406;-72
2022/02/24 06:23:00;;;;;;;;;1.00;1.00;;;;;;;;5073957;28;45401;-73
2022/02/24 06:25:26;;;;;;;;;2.00;2.00;;;;;;;;5073904;28;46294;-73
2022/02/24 06:27:51;;;;;;;;;2.00;2.00;;;;;;;;5074903;27;45457;-72
2022/02/24 06:30:16;;;;;;;;;3.75;2.00;;;;;;;;5076988;27;45292;-73
2022/02/24 06:32:42;;;;;;;;;2.00;2.00;;;;;;;;5073343;28;45576;-73
2022/02/24 06:35:08;;;;;;;;;3.00;2.00;;;;;;;;5077230;28;45915;-73
2022/02/24 06:37:33;;;;;;;;;2.75;2.75;;;;;;;;5069068;27;45246;-73
2022/02/24 06:39:59;;;;;;;;;2.00;2.00;;;;;;;;5078929;28;45288;-76
2022/02/24 06:42:24;;;;;;;;;1.75;1.00;;;;;;;;5077178;28;45508;-73
2022/02/24 06:44:49;;;;;;;;;2.50;2.25;;;;;;;;5076874;28;46440;-71
2022/02/24 06:47:14;;;;;;;;;1.75;1.75;;;;;;;;5078101;27;45433;-72
2022/02/24 06:49:41;;;;;;;;;3.25;1.00;;;;;;;;5077600;28;45488;-71
2022/02/24 06:52:06;;;;;;;;;1.00;1.00;;;;;;;;5088577;27;45430;-72
2022/02/24 06:54:31;;;;;;;;;2.25;2.25;;;;;;;;5077310;27;46089;-70
2022/02/24 06:56:58;;;;;;;;;4.25;2.00;;;;;;;;5078257;27;45392;-69
2022/02/24 06:59:23;;;;;;;;;1.25;0.00;;;;;;;;5087708;27;45351;-70
2022/02/24 07:01:49;;;;;;;;;3.00;1.25;;;;;;;;5076434;28;45413;-68
2022/02/24 07:04:14;;;;;;;;;1.00;1.00;;;;;;;;5081265;27;46969;-69
2022/02/24 07:06:39;;;;;;;;;2.00;1.00;;;;;;;;5081166;27;45342;-72
2022/02/24 07:09:04;;;;;;;;;1.25;1.25;;;;;;;;5078672;27;45515;-73
2022/02/24 07:11:30;;;;;;;;;2.00;1.00;;;;;;;;5076715;28;45452;-73
2022/02/24 07:13:55;;;;;;;;;1.00;1.00;;;;;;;;5076390;27;45477;-72
2022/02/24 07:16:20;;;;;;;;;3.00;1.00;;;;;;;;5078941;27;45468;-73
2022/02/24 07:18:45;;;;;;;;;3.00;1.00;;;;;;;;5077210;28;45464;-73
2022/02/24 07:21:11;;;;;;;;;2.50;1.25;;;;;;;;5075919;28;45484;-71
2022/02/24 07:23:36;;;;;;;;;2.75;1.25;;;;;;;;5074588;28;47133;-72
2022/02/24 07:26:02;;;;;;;;;1.25;1.25;;;;;;;;5076824;28;45462;-70
2022/02/24 07:28:27;;;;;;;;;1.50;0.75;;;;;;;;5081702;27;45248;-70
2022/02/24 07:30:52;;;;;;;;;2.00;1.00;;;;;;;;5077576;27;45215;-70
2022/02/24 07:33:18;;;;;;;;;1.25;1.25;;;;;;;;5068001;28;47049;-70
2022/02/24 07:35:43;;;;;;;;;1.75;1.75;;;;;;;;5067884;28;45572;-70
2022/02/24 07:38:08;;;;;;;;;1.00;1.00;;;;;;;;5089195;27;45714;-71
2022/02/24 07:40:33;;;;;;;;;1.75;1.50;;;;;;;;5087969;27;45604;-70
2022/02/24 07:42:59;;;;;;;;;1.75;1.75;;;;;;;;5087911;27;46292;-70
2022/02/24 07:45:24;;;;;;;;;1.50;1.50;;;;;;;;5078639;27;45411;-70
2022/02/24 07:47:49;;;;;;;;;1.00;1.00;;;;;;;;5079945;27;45903;-70
2022/02/24 07:50:14;;;;;;;;;2.25;1.00;;;;;;;;5081449;27;45310;-70
2022/02/24 07:52:41;;;;;;;;;4.75;1.50;;;;;;;;5076830;28;46045;-70
2022/02/24 07:55:07;;;;;;;;;1.75;1.50;;;;;;;;5076803;28;45421;-70
2022/02/24 07:57:32;;;;;;;;;2.50;1.50;;;;;;;;5076610;27;45561;-70
2022/02/24 07:59:57;;;;;;;;;2.50;2.00;;;;;;;;5080772;27;45530;-70
2022/02/24 08:02:22;;;;;;;;;2.75;1.25;;;;;;;;5074584;28;47169;-70
2022/02/24 08:04:48;;;;;;;;;2.00;2.00;;;;;;;;5072273;27;45550;-70
2022/02/24 08:07:13;;;;;;;;;2.50;2.00;;;;;;;;5078070;27;45466;-70
2022/02/24 08:09:38;;;;;;;;;2.50;2.50;;;;;;;;5076298;27;45793;-70
2022/02/24 08:14:48;;;;;;;;;1.50;1.00;;;;;;;;5071838;28;45408;-70
2022/02/24 08:17:13;;;;;;;;;3.00;1.50;;;;;;;;5063867;28;45509;-70
2022/02/24 08:19:38;;;;;;;;;3.00;1.00;;;;;;;;5079584;27;45469;-70
2022/02/24 08:22:03;;;;;;;;;1.25;1.25;;;;;;;;5076772;28;46291;-70
2022/02/24 08:24:30;;;;;;;;;1.50;1.50;;;;;;;;5075496;28;46344;-70
2022/02/24 08:26:55;;;;;;;;;1.75;0.00;;;;;;;;5076177;27;45299;-70
2022/02/24 08:29:21;;;;;;;;;2.25;1.50;;;;;;;;5087308;27;45532;-71
2022/02/24 08:31:46;;;;;;;;;2.00;1.00;;;;;;;;5075982;27;45275;-70
2022/02/24 08:34:11;;;;;;;;;4.00;1.00;;;;;;;;5076366;28;45496;-70
2022/02/24 08:36:36;;;;;;;;;2.00;2.00;;;;;;;;5079172;27;45610;-70
2022/02/24 08:39:04;;;;;;;;;3.25;2.00;;;;;;;;5075456;28;45300;-70
2022/02/24 08:41:30;;;;;;;;;3.75;2.00;;;;;;;;5082012;27;45497;-70
2022/02/24 08:43:55;;;;;;;;;1.00;1.00;;;;;;;;5079020;27;45454;-70
2022/02/24 08:46:20;;;;;;;;;2.25;1.00;;;;;;;;5075946;28;45392;-70
2022/02/24 08:48:45;;;;;;;;;1.00;1.00;;;;;;;;5075378;28;45280;-70
2022/02/24 08:51:10;;;;;;;;;2.50;1.00;;;;;;;;5077773;27;45417;-70
2022/02/24 08:53:35;;;;;;;;;1.50;1.50;;;;;;;;5084297;27;45369;-70
2022/02/24 08:56:01;;;;;;;;;3.50;1.00;;;;;;;;5074908;28;45529;-70
2022/02/24 08:58:26;;;;;;;;;3.00;1.00;;;;;;;;5080305;27;45319;-70
2022/02/24 09:00:51;;;;;;;;;5.25;2.50;;;;;;;;5076336;27;45263;-70
2022/02/24 09:03:16;;;;;;;;;0.75;0.75;;;;;;;;5074952;28;45378;-70
2022/02/24 09:05:42;;;;;;;;;1.25;1.25;;;;;;;;5075033;27;45465;-70
2022/02/24 09:08:07;;;;;;;;;2.00;2.00;;;;;;;;5075614;28;45484;-71
2022/02/24 09:10:32;;;;;;;;;2.50;0.75;;;;;;;;5075108;28;46871;-71
2022/02/24 09:12:58;;;;;;;;;2.00;0.75;;;;;;;;5076394;28;45341;-70
2022/02/24 09:15:23;;;;;;;;;1.75;1.75;;;;;;;;5079880;27;45396;-70
2022/02/24 09:17:48;;;;;;;;;1.00;1.00;;;;;;;;5082128;27;45453;-71
2022/02/24 09:20:14;;;;;;;;;2.50;1.00;;;;;;;;5074880;28;46256;-70
2022/02/24 09:22:39;;;;;;;;;3.00;1.00;;;;;;;;5074801;27;45352;-70
2022/02/24 09:25:05;;;;;;;;;1.00;1.00;;;;;;;;5061060;28;45413;-70
2022/02/24 09:27:30;;;;;;;;;0.25;0.25;;;;;;;;5073382;28;45345;-71
2022/02/24 09:29:56;;;;;;;;;3.25;0.75;;;;;;;;5079283;27;46203;-70
2022/02/24 09:32:22;;;;;;;;;0.75;0.00;;;;;;;;5078293;27;45489;-71
2022/02/24 09:34:47;;;;;;;;;1.00;1.00;;;;;;;;5075110;28;48774;-71
2022/02/24 09:37:12;;;;;;;;;1.25;1.25;;;;;;;;5075473;28;45507;-70
2022/02/24 09:39:37;;;;;;;;;1.00;1.00;;;;;;;;5081284;27;45573;-70
2022/02/24 09:42:02;;;;;;;;;1.00;1.00;;;;;;;;5079042;27;45539;-70
2022/02/24 09:44:28;;;;;;;;;1.50;0.50;;;;;;;;5074957;28;45459;-70
2022/02/24 09:46:53;;;;;;;;;1.00;1.00;;;;;;;;5074897;28;45452;-70
2022/02/24 09:49:20;;;;;;;;;0.00;0.00;;;;;;;;5075211;27;46963;-70
2022/02/24 09:51:45;;;;;;;;;2.00;0.75;;;;;;;;5082818;27;45359;-70
2022/02/24 09:54:12;;;;;;;;;1.50;1.00;;;;;;;;5081164;27;45430;-70
2022/02/24 09:56:37;;;;;;;;;1.25;0.50;;;;;;;;5078701;27;45248;-70
2022/02/24 09:59:02;;;;;;;;;1.75;1.75;;;;;;;;5074367;28;46232;-71
2022/02/24 10:01:28;;;;;;;;;2.50;2.00;;;;;;;;5074464;28;45370;-70
2022/02/24 10:03:54;;;;;;;;;1.25;0.50;;;;;;;;5075541;27;45339;-70
2022/02/24 10:06:31;;;;;;;;;1.00;1.00;;;;;;;;5077789;27;45534;-70
2022/02/24 10:08:56;;;;;;;;;0.00;0.00;;;;;;;;5077728;28;45292;-70
2022/02/24 10:11:27;;;;;;;;;2.00;2.00;;;;;;;;5078018;28;45350;-70
2022/02/24 10:14:07;;;;;;;;;1.50;1.50;;;;;;;;5077923;27;45369;-70
2022/02/24 10:16:53;;;;;;;;;1.25;1.00;;;;;;;;5078116;28;45444;-70
2022/02/24 10:19:26;;;;;;;;;1.00;1.00;;;;;;;;5077536;27;47126;-70
2022/02/24 10:22:10;;;;;;;;;2.00;2.00;;;;;;;;5078429;28;45350;-70
2022/02/24 10:24:35;;;;;;;;;0.00;0.00;;;;;;;;5077606;27;46811;-70
2022/02/24 10:27:16;;;;;;;;;1.75;1.00;;;;;;;;5079123;27;45340;-70
2022/02/24 10:30:13;;;;;;;;;0.00;0.00;;;;;;;;5085988;27;46495;-70
2022/02/24 10:32:42;;;;;;;;;2.50;1.00;;;;;;;;5077111;27;46570;-70
2022/02/24 10:35:17;;;;;;;;;1.00;1.00;;;;;;;;5077583;27;45487;-70
2022/02/24 10:37:42;;;;;;;;;0.75;0.00;;;;;;;;5091407;27;45515;-70
2022/02/24 10:40:08;;;;;;;;;0.25;0.25;;;;;;;;5078417;28;46976;-70
2022/02/24 10:42:33;;;;;;;;;0.25;0.25;;;;;;;;5077612;28;45293;-70
2022/02/24 10:45:05;;;;;;;;;1.25;1.25;;;;;;;;5077071;27;45495;-70
2022/02/24 10:47:30;;;;;;;;;1.75;1.75;;;;;;;;5077410;28;45467;-70
2022/02/24 10:49:55;;;;;;;;;1.25;1.25;;;;;;;;5077000;27;46291;-70
2022/02/24 10:52:21;;;;;;;;;2.00;1.00;;;;;;;;5077654;28;45408;-71
2022/02/24 10:54:57;;;;;;;;;0.50;0.25;;;;;;;;5077766;28;45468;-70
2022/02/24 10:57:25;;;;;;;;;4.50;1.75;;;;;;;;5080122;27;45495;-71
2022/02/24 10:59:54;;;;;;;;;1.50;1.25;;;;;;;;5083953;27;45546;-70
2022/02/24 11:02:20;;;;;;;;;1.00;1.00;;;;;;;;5077730;27;45564;-70
2022/02/24 11:04:46;;;;;;;;;1.00;0.75;;;;;;;;5077559;27;45377;-70
2022/02/24 11:07:11;;;;;;;;;2.50;1.00;;;;;;;;5080670;27;45291;-70
2022/02/24 11:09:37;;;;;;;;;1.50;1.00;;;;;;;;5077432;27;46080;-70
2022/02/24 11:12:02;;;;;;;;;1.00;1.00;;;;;;;;5076967;28;45477;-70
2022/02/24 11:14:29;;;;;;;;;0.25;0.25;;;;;;;;5076834;27;45458;-70
2022/02/24 11:16:54;;;;;;;;;0.00;0.00;;;;;;;;5076949;27;45331;-70
2022/02/24 11:19:20;;;;;;;;;1.00;1.00;;;;;;;;5077559;28;46182;-69
2022/02/24 11:21:45;;;;;;;;;1.00;1.00;;;;;;;;5077468;27;45453;-70
2022/02/24 11:24:10;;;;;;;;;1.50;1.00;;;;;;;;5077136;27;45403;-70
2022/02/24 11:26:39;;;;;;;;;1.25;1.25;;;;;;;;5083595;27;45477;-70
2022/02/24 11:29:23;;;;;;;;;1.50;1.50;;;;;;;;5076350;28;46330;-70
2022/02/24 11:32:00;;;;;;;;;0.50;0.50;;;;;;;;5064079;28;45358;-69
2022/02/24 11:34:44;;;;;;;;;2.75;0.00;;;;;;;;5074283;28;45277;-70
2022/02/24 11:37:22;;;;;;;;;2.00;0.50;;;;;;;;5076782;28;45326;-70
2022/02/24 11:39:47;;;;;;;;;1.00;1.00;;;;;;;;5076465;28;45323;-70
2022/02/24 11:42:23;;;;;;;;;1.00;0.75;;;;;;;;5075469;28;45537;-70
2022/02/24 11:44:48;;;;;;;;;0.75;0.50;;;;;;;;5076467;27;45429;-70
2022/02/24 11:47:14;;;;;;;;;1.00;0.00;;;;;;;;5076063;28;45541;-70
2022/02/24 11:49:54;;;;;;;;;1.00;1.00;;;;;;;;5076148;28;46061;-70
2022/02/24 11:52:19;;;;;;;;;1.00;1.00;;;;;;;;5076170;27;45436;-69
2022/02/24 11:54:45;;;;;;;;;0.00;0.00;;;;;;;;5076855;28;45524;-70
2022/02/24 11:57:26;;;;;;;;;2.25;0.00;;;;;;;;5075661;28;45707;-70
2022/02/24 11:59:51;;;;;;;;;0.50;0.25;;;;;;;;5076372;27;46164;-70
2022/02/24 12:02:17;;;;;;;;;0.25;0.25;;;;;;;;5086567;27;45390;-70
2022/02/24 12:04:46;;;;;;;;;0.75;0.00;;;;;;;;5076636;27;45430;-70
2022/02/24 12:07:12;;;;;;;;;0.00;0.00;;;;;;;;5077142;28;45431;-69
2022/02/24 12:09:38;;;;;;;;;1.00;1.00;;;;;;;;5075767;28;45485;-70
2022/02/24 12:12:26;;;;;;;;;1.00;1.00;;;;;;;;5069145;28;45573;-69
2022/02/24 12:14:56;;;;;;;;;0.50;0.00;;;;;;;;5069011;28;45355;-70
2022/02/24 12:17:23;;;;;;;;;0.00;0.00;;;;;;;;5075585;28;45477;-70
2022/02/24 12:20:03;;;;;;;;;2.00;0.50;;;;;;;;5082487;27;46378;-70
2022/02/24 12:22:30;;;;;;;;;1.50;0.00;;;;;;;;5079456;27;45429;-70
2022/02/24 12:25:08;;;;;;;;;1.00;1.00;;;;;;;;5076582;27;45431;-70
2022/02/24 12:27:35;;;;;;;;;1.25;1.00;;;;;;;;5081095;27;45485;-69
2022/02/24 12:30:01;;;;;;;;;2.00;1.00;;;;;;;;5081646;27;46128;-70
2022/02/24 12:32:38;;;;;;;;;0.50;0.00;;;;;;;;5075416;28;45477;-70
2022/02/24 12:35:03;;;;;;;;;2.00;0.75;;;;;;;;5061711;28;45759;-69
2022/02/24 12:37:33;;;;;;;;;1.75;0.25;;;;;;;;5064080;27;45382;-70
2022/02/24 12:39:59;;;;;;;;;0.50;0.50;;;;;;;;5075995;27;49529;-70
2022/02/24 12:42:24;;;;;;;;;0.25;0.25;;;;;;;;5075442;27;45445;-70
2022/02/24 12:44:49;;;;;;;;;1.25;0.25;;;;;;;;5080953;27;45269;-70
2022/02/24 12:47:14;;;;;;;;;0.75;0.75;;;;;;;;5076206;27;45448;-69
2022/02/24 12:49:47;;;;;;;;;0.00;0.00;;;;;;;;5075958;27;46234;-70
2022/02/24 12:52:16;;;;;;;;;1.50;0.50;;;;;;;;5087434;27;45259;-70
2022/02/24 12:54:42;;;;;;;;;0.00;0.00;;;;;;;;5075640;27;45232;-70
2022/02/24 12:57:07;;;;;;;;;1.75;1.00;;;;;;;;5075040;28;45456;-70
2022/02/24 12:59:34;;;;;;;;;0.00;0.00;;;;;;;;5074860;28;46300;-70
2022/02/24 13:01:59;;;;;;;;;0.50;0.50;;;;;;;;5075229;27;45491;-70
2022/02/24 13:04:25;;;;;;;;;0.00;0.00;;;;;;;;5075248;28;45399;-70
2022/02/24 13:06:50;;;;;;;;;0.75;0.75;;;;;;;;5085185;27;45512;-70
2022/02/24 13:11:59;;;;;;;;;0.50;0.50;;;;;;;;5069400;28;45460;-70
2022/02/24 13:14:25;;;;;;;;;1.00;1.00;;;;;;;;5064009;28;45481;-70
2022/02/24 13:16:52;;;;;;;;;0.75;0.00;;;;;;;;5087259;27;45532;-70
2022/02/24 13:19:18;;;;;;;;;0.00;0.00;;;;;;;;5076174;28;47341;-70
2022/02/24 13:21:43;;;;;;;;;1.75;1.75;;;;;;;;5074734;27;45522;-71
2022/02/24 13:24:09;;;;;;;;;2.25;1.00;;;;;;;;5067743;28;45492;-70
2022/02/24 13:26:40;;;;;;;;;1.00;0.50;;;;;;;;5065246;28;45436;-70
2022/02/24 13:29:06;;;;;;;;;1.00;1.00;;;;;;;;5075066;28;47465;-69
2022/02/24 13:31:32;;;;;;;;;0.00;0.00;;;;;;;;5089385;27;45752;-69
2022/02/24 13:33:57;;;;;;;;;1.00;1.00;;;;;;;;5073501;28;45535;-70
2022/02/24 13:36:29;;;;;;;;;0.00;0.00;;;;;;;;5074401;28;45564;-70
2022/02/24 13:38:54;;;;;;;;;0.75;0.00;;;;;;;;5077639;27;46203;-70
2022/02/24 13:41:23;;;;;;;;;1.00;1.00;;;;;;;;5078384;28;45511;-70
2022/02/24 13:43:48;;;;;;;;;0.00;0.00;;;;;;;;5073910;28;48684;-70
2022/02/24 13:46:15;;;;;;;;;0.50;0.50;;;;;;;;5079252;28;45528;-69
2022/02/24 13:48:44;;;;;;;;;2.00;0.00;;;;;;;;5077865;27;47198;-70
2022/02/24 13:51:12;;;;;;;;;1.00;1.00;;;;;;;;5077904;28;45694;-69
2022/02/24 13:53:37;;;;;;;;;0.00;0.00;;;;;;;;5081149;27;45608;-70
2022/02/24 13:56:03;;;;;;;;;1.25;1.00;;;;;;;;5078601;28;45579;-70
2022/02/24 13:58:30;;;;;;;;;2.00;2.00;;;;;;;;5078017;28;46085;-70
2022/02/24 14:00:56;;;;;;;;;0.00;0.00;;;;;;;;5079064;28;45504;-70
2022/02/24 14:03:29;;;;;;;;;0.75;0.00;;;;;;;;5078088;27;45906;-70
2022/02/24 14:06:09;;;;;;;;;1.00;1.00;;;;;;;;5077447;28;45331;-69
2022/02/24 14:08:34;;;;;;;;;2.00;1.00;;;;;;;;5078262;28;46000;-70
2022/02/24 14:11:10;;;;;;;;;0.00;0.00;;;;;;;;5076740;28;45402;-70
2022/02/24 14:13:36;;;;;;;;;0.00;0.00;;;;;;;;5078166;27;45594;-69
2022/02/24 14:16:01;;;;;;;;;2.25;0.00;;;;;;;;5079242;28;45391;-70
2022/02/24 14:18:26;;;;;;;;;0.75;0.00;;;;;;;;5078089;28;46104;-70
2022/02/24 14:20:52;;;;;;;;;2.25;1.00;;;;;;;;5081648;27;45726;-70
2022/02/24 14:23:17;;;;;;;;;0.00;0.00;;;;;;;;5077793;28;45359;-70
2022/02/24 14:25:43;;;;;;;;;0.75;0.75;;;;;;;;5078228;28;45513;-70
2022/02/24 14:28:08;;;;;;;;;0.00;0.00;;;;;;;;5073806;28;46366;-70
2022/02/24 14:30:33;;;;;;;;;1.00;1.00;;;;;;;;5077794;27;45275;-70
2022/02/24 14:32:59;;;;;;;;;1.00;1.00;;;;;;;;5077633;28;45456;-70
2022/02/24 14:35:24;;;;;;;;;0.00;0.00;;;;;;;;5077243;28;45390;-70
2022/02/24 14:37:49;;;;;;;;;2.00;1.00;;;;;;;;5077503;28;45633;-70
2022/02/24 14:40:14;;;;;;;;;1.50;0.75;;;;;;;;5078489;28;45398;-70
2022/02/24 14:42:41;;;;;;;;;0.00;0.00;;;;;;;;5077734;27;45509;-70